sensor_id;sensor_type;location;lat;lon;timestamp;P1;durP1;ratioP1;P2;durP2;ratioP2
26060;SDS011;36331;51.378;0.018;2022-12-29T00:01:13;19.13;;;4.05;;
26060;SDS011;36331;51.378;0.018;2022-12-29T00:03:44;10.07;;;2.20;;
26060;SDS011;36331;51.378;0.018;2022-12-29T00:06:15;17.52;;;2.20;;
26060;SDS011;36331;51.378;0.018;2022-12-29T00:08:45;19.88;;;4.13;;
26060;SDS011;36331;51.378;0.018;2022-12-29T00:11:16;14.32;;;3.45;;
26060;SDS011;36331;51.378;0.018;2022-12-29T00:13:46;13.20;;;3.03;;
26060;SDS011;36331;51.378;0.018;2022-12-29T00:16:29;11.90;;;2.38;;
26060;SDS011;36331;51.378;0.018;2022-12-29T00:19:00;18.02;;;2.47;;
26060;SDS011;36331;51.378;0.018;2022-12-29T00:21:30;15.25;;;4.20;;
26060;SDS011;36331;51.378;0.018;2022-12-29T00:24:18;8.38;;;2.25;;
26060;SDS011;36331;51.378;0.018;2022-12-29T00:27:11;11.23;;;2.00;;
26060;SDS011;36331;51.378;0.018;2022-12-29T00:29:59;12.35;;;2.75;;
26060;SDS011;36331;51.378;0.018;2022-12-29T00:32:46;6.78;;;1.90;;
26060;SDS011;36331;51.378;0.018;2022-12-29T00:35:34;14.05;;;2.17;;
26060;SDS011;36331;51.378;0.018;2022-12-29T00:38:06;10.27;;;1.80;;
26060;SDS011;36331;51.378;0.018;2022-12-29T00:40:54;15.32;;;2.58;;
26060;SDS011;36331;51.378;0.018;2022-12-29T00:43:40;11.35;;;2.50;;
26060;SDS011;36331;51.378;0.018;2022-12-29T00:46:27;17.73;;;2.58;;
26060;SDS011;36331;51.378;0.018;2022-12-29T00:48:57;14.25;;;2.22;;
26060;SDS011;36331;51.378;0.018;2022-12-29T00:51:44;19.65;;;3.60;;
26060;SDS011;36331;51.378;0.018;2022-12-29T00:54:15;29.05;;;3.45;;
26060;SDS011;36331;51.378;0.018;2022-12-29T00:56:45;10.43;;;2.65;;
26060;SDS011;36331;51.378;0.018;2022-12-29T00:59:16;14.52;;;2.15;;
26060;SDS011;36331;51.378;0.018;2022-12-29T01:01:46;13.13;;;2.05;;
26060;SDS011;36331;51.378;0.018;2022-12-29T01:04:18;18.20;;;2.65;;
26060;SDS011;36331;51.378;0.018;2022-12-29T01:06:48;14.93;;;2.38;;
26060;SDS011;36331;51.378;0.018;2022-12-29T01:09:19;14.60;;;2.72;;
26060;SDS011;36331;51.378;0.018;2022-12-29T01:12:08;12.23;;;3.28;;
26060;SDS011;36331;51.378;0.018;2022-12-29T01:14:38;10.93;;;1.77;;
26060;SDS011;36331;51.378;0.018;2022-12-29T01:17:07;10.07;;;2.13;;
26060;SDS011;36331;51.378;0.018;2022-12-29T01:19:36;9.70;;;2.10;;
26060;SDS011;36331;51.378;0.018;2022-12-29T01:22:06;9.52;;;4.55;;
26060;SDS011;36331;51.378;0.018;2022-12-29T01:24:36;9.23;;;1.75;;
26060;SDS011;36331;51.378;0.018;2022-12-29T01:27:05;12.98;;;1.80;;
26060;SDS011;36331;51.378;0.018;2022-12-29T01:29:36;12.20;;;2.40;;
26060;SDS011;36331;51.378;0.018;2022-12-29T01:32:06;7.95;;;1.75;;
26060;SDS011;36331;51.378;0.018;2022-12-29T01:34:35;17.23;;;2.33;;
26060;SDS011;36331;51.378;0.018;2022-12-29T01:37:04;14.68;;;3.28;;
26060;SDS011;36331;51.378;0.018;2022-12-29T01:39:34;12.20;;;2.15;;
26060;SDS011;36331;51.378;0.018;2022-12-29T01:42:05;17.13;;;4.68;;
26060;SDS011;36331;51.378;0.018;2022-12-29T01:44:51;16.05;;;2.83;;
26060;SDS011;36331;51.378;0.018;2022-12-29T01:47:31;14.05;;;2.50;;
26060;SDS011;36331;51.378;0.018;2022-12-29T01:50:04;15.05;;;2.67;;
26060;SDS011;36331;51.378;0.018;2022-12-29T01:52:33;12.40;;;2.38;;
26060;SDS011;36331;51.378;0.018;2022-12-29T01:55:04;16.48;;;2.58;;
26060;SDS011;36331;51.378;0.018;2022-12-29T01:57:36;11.02;;;1.55;;
26060;SDS011;36331;51.378;0.018;2022-12-29T02:00:07;12.98;;;2.45;;
26060;SDS011;36331;51.378;0.018;2022-12-29T02:02:42;13.75;;;2.20;;
26060;SDS011;36331;51.378;0.018;2022-12-29T02:05:14;8.68;;;1.50;;
26060;SDS011;36331;51.378;0.018;2022-12-29T02:07:45;15.57;;;3.25;;
26060;SDS011;36331;51.378;0.018;2022-12-29T02:10:17;15.13;;;2.78;;
26060;SDS011;36331;51.378;0.018;2022-12-29T02:12:49;17.15;;;2.92;;
26060;SDS011;36331;51.378;0.018;2022-12-29T02:15:31;16.50;;;2.90;;
26060;SDS011;36331;51.378;0.018;2022-12-29T02:18:09;14.70;;;2.45;;
26060;SDS011;36331;51.378;0.018;2022-12-29T02:20:56;12.15;;;2.88;;
26060;SDS011;36331;51.378;0.018;2022-12-29T02:23:47;11.63;;;2.08;;
26060;SDS011;36331;51.378;0.018;2022-12-29T02:26:41;13.63;;;3.55;;
26060;SDS011;36331;51.378;0.018;2022-12-29T02:29:29;17.67;;;3.25;;
26060;SDS011;36331;51.378;0.018;2022-12-29T02:32:05;10.50;;;2.50;;
26060;SDS011;36331;51.378;0.018;2022-12-29T02:34:39;19.02;;;3.30;;
26060;SDS011;36331;51.378;0.018;2022-12-29T02:37:13;15.30;;;2.20;;
26060;SDS011;36331;51.378;0.018;2022-12-29T02:39:49;16.38;;;4.28;;
26060;SDS011;36331;51.378;0.018;2022-12-29T02:42:21;13.38;;;3.75;;
26060;SDS011;36331;51.378;0.018;2022-12-29T02:44:54;17.73;;;4.25;;
26060;SDS011;36331;51.378;0.018;2022-12-29T02:47:27;13.50;;;3.13;;
26060;SDS011;36331;51.378;0.018;2022-12-29T02:50:01;21.13;;;2.95;;
26060;SDS011;36331;51.378;0.018;2022-12-29T02:52:34;17.00;;;2.90;;
26060;SDS011;36331;51.378;0.018;2022-12-29T02:55:05;19.40;;;2.53;;
26060;SDS011;36331;51.378;0.018;2022-12-29T02:57:34;20.98;;;6.45;;
26060;SDS011;36331;51.378;0.018;2022-12-29T03:00:04;22.48;;;2.35;;
26060;SDS011;36331;51.378;0.018;2022-12-29T03:05:09;14.77;;;2.88;;
26060;SDS011;36331;51.378;0.018;2022-12-29T03:07:43;13.15;;;2.58;;
26060;SDS011;36331;51.378;0.018;2022-12-29T03:10:19;16.23;;;3.63;;
26060;SDS011;36331;51.378;0.018;2022-12-29T03:12:54;17.52;;;3.75;;
26060;SDS011;36331;51.378;0.018;2022-12-29T03:15:46;11.25;;;3.30;;
26060;SDS011;36331;51.378;0.018;2022-12-29T03:18:32;13.02;;;2.85;;
26060;SDS011;36331;51.378;0.018;2022-12-29T03:21:06;16.65;;;3.05;;
26060;SDS011;36331;51.378;0.018;2022-12-29T03:23:37;16.02;;;3.13;;
26060;SDS011;36331;51.378;0.018;2022-12-29T03:26:08;20.88;;;4.53;;
26060;SDS011;36331;51.378;0.018;2022-12-29T03:28:40;14.10;;;2.90;;
26060;SDS011;36331;51.378;0.018;2022-12-29T03:31:17;16.98;;;4.05;;
26060;SDS011;36331;51.378;0.018;2022-12-29T03:33:48;18.23;;;3.88;;
26060;SDS011;36331;51.378;0.018;2022-12-29T03:36:20;16.02;;;2.75;;
26060;SDS011;36331;51.378;0.018;2022-12-29T03:38:55;14.75;;;2.90;;
26060;SDS011;36331;51.378;0.018;2022-12-29T03:41:27;22.35;;;3.70;;
26060;SDS011;36331;51.378;0.018;2022-12-29T03:44:01;14.48;;;4.65;;
26060;SDS011;36331;51.378;0.018;2022-12-29T03:46:31;11.48;;;3.33;;
26060;SDS011;36331;51.378;0.018;2022-12-29T03:49:00;17.10;;;3.35;;
26060;SDS011;36331;51.378;0.018;2022-12-29T03:51:31;19.13;;;3.72;;
26060;SDS011;36331;51.378;0.018;2022-12-29T03:54:04;16.42;;;3.97;;
26060;SDS011;36331;51.378;0.018;2022-12-29T03:56:34;15.98;;;2.95;;
26060;SDS011;36331;51.378;0.018;2022-12-29T03:59:03;14.07;;;2.13;;
26060;SDS011;36331;51.378;0.018;2022-12-29T04:01:38;21.40;;;2.92;;
26060;SDS011;36331;51.378;0.018;2022-12-29T04:04:08;19.17;;;2.88;;
26060;SDS011;36331;51.378;0.018;2022-12-29T04:06:38;13.57;;;2.95;;
26060;SDS011;36331;51.378;0.018;2022-12-29T04:09:09;14.52;;;3.80;;
26060;SDS011;36331;51.378;0.018;2022-12-29T04:11:44;17.02;;;3.70;;
26060;SDS011;36331;51.378;0.018;2022-12-29T04:14:13;14.75;;;2.80;;
26060;SDS011;36331;51.378;0.018;2022-12-29T04:16:44;19.25;;;4.45;;
26060;SDS011;36331;51.378;0.018;2022-12-29T04:19:14;17.20;;;2.63;;
26060;SDS011;36331;51.378;0.018;2022-12-29T04:21:46;13.10;;;3.25;;
26060;SDS011;36331;51.378;0.018;2022-12-29T04:24:15;18.65;;;2.72;;
26060;SDS011;36331;51.378;0.018;2022-12-29T04:26:47;9.70;;;3.00;;
26060;SDS011;36331;51.378;0.018;2022-12-29T04:29:52;13.57;;;2.33;;
26060;SDS011;36331;51.378;0.018;2022-12-29T04:32:42;12.45;;;2.78;;
26060;SDS011;36331;51.378;0.018;2022-12-29T04:35:12;17.10;;;3.45;;
26060;SDS011;36331;51.378;0.018;2022-12-29T04:37:43;13.85;;;3.30;;
26060;SDS011;36331;51.378;0.018;2022-12-29T04:40:12;21.13;;;3.92;;
26060;SDS011;36331;51.378;0.018;2022-12-29T04:42:41;17.75;;;3.05;;
26060;SDS011;36331;51.378;0.018;2022-12-29T04:45:11;14.68;;;3.50;;
26060;SDS011;36331;51.378;0.018;2022-12-29T04:47:54;15.50;;;3.05;;
26060;SDS011;36331;51.378;0.018;2022-12-29T04:50:43;19.13;;;3.42;;
26060;SDS011;36331;51.378;0.018;2022-12-29T04:53:17;18.70;;;3.05;;
26060;SDS011;36331;51.378;0.018;2022-12-29T04:55:48;22.23;;;3.13;;
26060;SDS011;36331;51.378;0.018;2022-12-29T04:58:18;11.93;;;2.33;;
26060;SDS011;36331;51.378;0.018;2022-12-29T05:00:49;14.90;;;3.55;;
26060;SDS011;36331;51.378;0.018;2022-12-29T05:03:22;14.40;;;2.65;;
26060;SDS011;36331;51.378;0.018;2022-12-29T05:05:52;12.90;;;3.05;;
26060;SDS011;36331;51.378;0.018;2022-12-29T05:08:24;13.45;;;3.22;;
26060;SDS011;36331;51.378;0.018;2022-12-29T05:10:57;18.83;;;4.20;;
26060;SDS011;36331;51.378;0.018;2022-12-29T05:13:26;14.15;;;3.10;;
26060;SDS011;36331;51.378;0.018;2022-12-29T05:15:57;15.52;;;2.80;;
26060;SDS011;36331;51.378;0.018;2022-12-29T05:18:27;17.02;;;3.00;;
26060;SDS011;36331;51.378;0.018;2022-12-29T05:20:58;15.20;;;3.30;;
26060;SDS011;36331;51.378;0.018;2022-12-29T05:23:29;10.80;;;2.05;;
26060;SDS011;36331;51.378;0.018;2022-12-29T05:26:03;21.23;;;3.60;;
26060;SDS011;36331;51.378;0.018;2022-12-29T05:28:54;25.63;;;5.22;;
26060;SDS011;36331;51.378;0.018;2022-12-29T05:31:23;25.52;;;4.70;;
26060;SDS011;36331;51.378;0.018;2022-12-29T05:33:53;17.95;;;3.45;;
26060;SDS011;36331;51.378;0.018;2022-12-29T05:36:23;14.40;;;3.40;;
26060;SDS011;36331;51.378;0.018;2022-12-29T05:38:58;11.30;;;3.30;;
26060;SDS011;36331;51.378;0.018;2022-12-29T05:41:29;15.63;;;3.55;;
26060;SDS011;36331;51.378;0.018;2022-12-29T05:43:59;9.45;;;2.53;;
26060;SDS011;36331;51.378;0.018;2022-12-29T05:46:33;11.20;;;2.38;;
26060;SDS011;36331;51.378;0.018;2022-12-29T05:49:08;8.30;;;2.00;;
26060;SDS011;36331;51.378;0.018;2022-12-29T05:51:51;21.70;;;4.65;;
26060;SDS011;36331;51.378;0.018;2022-12-29T05:54:23;15.68;;;2.78;;
26060;SDS011;36331;51.378;0.018;2022-12-29T05:56:53;11.63;;;2.37;;
26060;SDS011;36331;51.378;0.018;2022-12-29T05:59:22;13.15;;;3.53;;
26060;SDS011;36331;51.378;0.018;2022-12-29T06:01:53;10.43;;;1.77;;
26060;SDS011;36331;51.378;0.018;2022-12-29T06:06:54;14.35;;;1.55;;
26060;SDS011;36331;51.378;0.018;2022-12-29T06:09:45;7.00;;;1.60;;
26060;SDS011;36331;51.378;0.018;2022-12-29T06:12:14;17.73;;;2.05;;
26060;SDS011;36331;51.378;0.018;2022-12-29T06:14:48;6.07;;;1.60;;
26060;SDS011;36331;51.378;0.018;2022-12-29T06:17:17;8.43;;;1.13;;
26060;SDS011;36331;51.378;0.018;2022-12-29T06:22:19;7.80;;;1.15;;
26060;SDS011;36331;51.378;0.018;2022-12-29T06:24:49;13.02;;;0.98;;
26060;SDS011;36331;51.378;0.018;2022-12-29T06:27:18;9.43;;;2.33;;
26060;SDS011;36331;51.378;0.018;2022-12-29T06:29:49;3.85;;;0.70;;
26060;SDS011;36331;51.378;0.018;2022-12-29T06:32:18;7.47;;;1.52;;
26060;SDS011;36331;51.378;0.018;2022-12-29T06:34:54;6.95;;;1.50;;
26060;SDS011;36331;51.378;0.018;2022-12-29T06:37:23;4.22;;;0.98;;
26060;SDS011;36331;51.378;0.018;2022-12-29T06:39:54;4.93;;;2.30;;
26060;SDS011;36331;51.378;0.018;2022-12-29T06:42:28;5.57;;;1.08;;
26060;SDS011;36331;51.378;0.018;2022-12-29T06:45:37;5.50;;;1.15;;
26060;SDS011;36331;51.378;0.018;2022-12-29T06:48:07;5.68;;;0.75;;
26060;SDS011;36331;51.378;0.018;2022-12-29T06:50:36;6.15;;;1.27;;
26060;SDS011;36331;51.378;0.018;2022-12-29T06:53:06;8.40;;;1.15;;
26060;SDS011;36331;51.378;0.018;2022-12-29T06:55:36;4.85;;;1.13;;
26060;SDS011;36331;51.378;0.018;2022-12-29T06:58:05;4.05;;;0.98;;
26060;SDS011;36331;51.378;0.018;2022-12-29T07:00:35;3.75;;;1.23;;
26060;SDS011;36331;51.378;0.018;2022-12-29T07:03:04;2.90;;;0.77;;
26060;SDS011;36331;51.378;0.018;2022-12-29T07:05:33;7.15;;;0.60;;
26060;SDS011;36331;51.378;0.018;2022-12-29T07:08:04;4.03;;;1.17;;
26060;SDS011;36331;51.378;0.018;2022-12-29T07:10:33;2.95;;;0.77;;
26060;SDS011;36331;51.378;0.018;2022-12-29T07:13:05;3.10;;;0.50;;
26060;SDS011;36331;51.378;0.018;2022-12-29T07:15:36;5.43;;;0.60;;
26060;SDS011;36331;51.378;0.018;2022-12-29T07:18:05;2.85;;;0.60;;
26060;SDS011;36331;51.378;0.018;2022-12-29T07:20:34;3.15;;;0.55;;
26060;SDS011;36331;51.378;0.018;2022-12-29T07:23:04;7.80;;;0.75;;
26060;SDS011;36331;51.378;0.018;2022-12-29T07:25:33;4.03;;;0.77;;
26060;SDS011;36331;51.378;0.018;2022-12-29T07:28:04;4.35;;;0.60;;
26060;SDS011;36331;51.378;0.018;2022-12-29T07:30:36;5.30;;;0.80;;
26060;SDS011;36331;51.378;0.018;2022-12-29T07:33:08;4.95;;;0.40;;
26060;SDS011;36331;51.378;0.018;2022-12-29T07:35:37;3.47;;;0.73;;
26060;SDS011;36331;51.378;0.018;2022-12-29T07:38:07;3.20;;;0.57;;
26060;SDS011;36331;51.378;0.018;2022-12-29T07:40:36;5.28;;;1.00;;
26060;SDS011;36331;51.378;0.018;2022-12-29T07:43:07;2.78;;;0.73;;
26060;SDS011;36331;51.378;0.018;2022-12-29T07:45:47;2.83;;;0.85;;
26060;SDS011;36331;51.378;0.018;2022-12-29T07:48:17;2.78;;;1.30;;
26060;SDS011;36331;51.378;0.018;2022-12-29T07:50:46;2.58;;;0.50;;
26060;SDS011;36331;51.378;0.018;2022-12-29T07:53:17;2.67;;;0.50;;
26060;SDS011;36331;51.378;0.018;2022-12-29T07:55:47;3.85;;;0.55;;
26060;SDS011;36331;51.378;0.018;2022-12-29T07:58:18;3.03;;;0.93;;
26060;SDS011;36331;51.378;0.018;2022-12-29T08:00:52;3.15;;;0.40;;
26060;SDS011;36331;51.378;0.018;2022-12-29T08:03:21;3.05;;;0.82;;
26060;SDS011;36331;51.378;0.018;2022-12-29T08:05:52;4.40;;;0.68;;
26060;SDS011;36331;51.378;0.018;2022-12-29T08:08:26;4.35;;;1.13;;
26060;SDS011;36331;51.378;0.018;2022-12-29T08:10:56;1.88;;;0.40;;
26060;SDS011;36331;51.378;0.018;2022-12-29T08:13:27;5.88;;;0.80;;
26060;SDS011;36331;51.378;0.018;2022-12-29T08:15:59;3.65;;;0.65;;
26060;SDS011;36331;51.378;0.018;2022-12-29T08:18:29;2.38;;;0.50;;
26060;SDS011;36331;51.378;0.018;2022-12-29T08:21:00;3.45;;;0.60;;
26060;SDS011;36331;51.378;0.018;2022-12-29T08:23:30;3.50;;;0.95;;
26060;SDS011;36331;51.378;0.018;2022-12-29T08:26:02;3.63;;;0.80;;
26060;SDS011;36331;51.378;0.018;2022-12-29T08:28:33;1.90;;;0.50;;
26060;SDS011;36331;51.378;0.018;2022-12-29T08:31:03;2.72;;;0.60;;
26060;SDS011;36331;51.378;0.018;2022-12-29T08:33:32;6.80;;;0.93;;
26060;SDS011;36331;51.378;0.018;2022-12-29T08:36:03;5.25;;;0.75;;
26060;SDS011;36331;51.378;0.018;2022-12-29T08:38:40;4.18;;;0.43;;
26060;SDS011;36331;51.378;0.018;2022-12-29T08:41:13;1.33;;;0.35;;
26060;SDS011;36331;51.378;0.018;2022-12-29T08:43:47;3.00;;;0.50;;
26060;SDS011;36331;51.378;0.018;2022-12-29T08:46:17;3.53;;;0.80;;
26060;SDS011;36331;51.378;0.018;2022-12-29T08:48:46;4.32;;;0.73;;
26060;SDS011;36331;51.378;0.018;2022-12-29T08:51:15;2.60;;;0.45;;
26060;SDS011;36331;51.378;0.018;2022-12-29T08:53:50;2.28;;;0.55;;
26060;SDS011;36331;51.378;0.018;2022-12-29T08:56:21;5.03;;;1.17;;
26060;SDS011;36331;51.378;0.018;2022-12-29T08:58:55;4.13;;;0.50;;
26060;SDS011;36331;51.378;0.018;2022-12-29T09:01:27;3.78;;;0.50;;
26060;SDS011;36331;51.378;0.018;2022-12-29T09:03:57;3.17;;;0.80;;
26060;SDS011;36331;51.378;0.018;2022-12-29T09:06:44;3.25;;;0.60;;
26060;SDS011;36331;51.378;0.018;2022-12-29T09:09:13;1.83;;;0.70;;
26060;SDS011;36331;51.378;0.018;2022-12-29T09:11:43;2.35;;;0.57;;
26060;SDS011;36331;51.378;0.018;2022-12-29T09:14:14;2.05;;;0.70;;
26060;SDS011;36331;51.378;0.018;2022-12-29T09:16:43;3.95;;;0.75;;
26060;SDS011;36331;51.378;0.018;2022-12-29T09:19:30;11.13;;;0.82;;
26060;SDS011;36331;51.378;0.018;2022-12-29T09:21:59;5.20;;;0.95;;
26060;SDS011;36331;51.378;0.018;2022-12-29T09:24:29;6.40;;;0.80;;
26060;SDS011;36331;51.378;0.018;2022-12-29T09:26:59;4.07;;;0.90;;
26060;SDS011;36331;51.378;0.018;2022-12-29T09:29:29;4.50;;;0.82;;
26060;SDS011;36331;51.378;0.018;2022-12-29T09:31:58;7.13;;;0.68;;
26060;SDS011;36331;51.378;0.018;2022-12-29T09:34:27;5.43;;;0.82;;
26060;SDS011;36331;51.378;0.018;2022-12-29T09:36:56;3.55;;;0.75;;
26060;SDS011;36331;51.378;0.018;2022-12-29T09:39:26;3.72;;;0.50;;
26060;SDS011;36331;51.378;0.018;2022-12-29T09:41:57;3.10;;;0.60;;
26060;SDS011;36331;51.378;0.018;2022-12-29T09:44:35;4.88;;;0.60;;
26060;SDS011;36331;51.378;0.018;2022-12-29T09:47:08;4.97;;;0.50;;
26060;SDS011;36331;51.378;0.018;2022-12-29T09:49:40;5.43;;;0.93;;
26060;SDS011;36331;51.378;0.018;2022-12-29T09:52:13;3.90;;;0.60;;
26060;SDS011;36331;51.378;0.018;2022-12-29T09:54:48;2.53;;;0.52;;
26060;SDS011;36331;51.378;0.018;2022-12-29T09:57:32;2.97;;;0.57;;
26060;SDS011;36331;51.378;0.018;2022-12-29T10:00:06;5.57;;;1.17;;
26060;SDS011;36331;51.378;0.018;2022-12-29T10:02:40;3.38;;;0.80;;
26060;SDS011;36331;51.378;0.018;2022-12-29T10:05:17;2.22;;;0.65;;
26060;SDS011;36331;51.378;0.018;2022-12-29T10:10:46;4.63;;;0.85;;
26060;SDS011;36331;51.378;0.018;2022-12-29T10:13:21;4.55;;;0.50;;
26060;SDS011;36331;51.378;0.018;2022-12-29T10:15:57;3.20;;;0.60;;
26060;SDS011;36331;51.378;0.018;2022-12-29T10:18:34;3.53;;;1.27;;
26060;SDS011;36331;51.378;0.018;2022-12-29T10:21:08;2.58;;;1.20;;
26060;SDS011;36331;51.378;0.018;2022-12-29T10:23:43;5.18;;;0.47;;
26060;SDS011;36331;51.378;0.018;2022-12-29T10:26:15;2.30;;;0.70;;
26060;SDS011;36331;51.378;0.018;2022-12-29T10:28:47;4.65;;;1.60;;
26060;SDS011;36331;51.378;0.018;2022-12-29T10:31:28;1.98;;;1.33;;
26060;SDS011;36331;51.378;0.018;2022-12-29T10:34:03;1.48;;;0.40;;
26060;SDS011;36331;51.378;0.018;2022-12-29T10:36:38;3.33;;;0.88;;
26060;SDS011;36331;51.378;0.018;2022-12-29T10:39:11;3.28;;;0.50;;
26060;SDS011;36331;51.378;0.018;2022-12-29T10:41:44;3.40;;;0.70;;
26060;SDS011;36331;51.378;0.018;2022-12-29T10:44:18;0.80;;;0.30;;
26060;SDS011;36331;51.378;0.018;2022-12-29T10:46:55;2.55;;;1.00;;
26060;SDS011;36331;51.378;0.018;2022-12-29T10:49:26;1.73;;;0.50;;
26060;SDS011;36331;51.378;0.018;2022-12-29T10:51:58;1.37;;;0.30;;
26060;SDS011;36331;51.378;0.018;2022-12-29T10:54:32;1.50;;;0.43;;
26060;SDS011;36331;51.378;0.018;2022-12-29T10:57:05;2.20;;;0.57;;
26060;SDS011;36331;51.378;0.018;2022-12-29T10:59:37;1.48;;;0.30;;
26060;SDS011;36331;51.378;0.018;2022-12-29T11:02:15;1.65;;;0.50;;
26060;SDS011;36331;51.378;0.018;2022-12-29T11:04:50;2.00;;;0.30;;
26060;SDS011;36331;51.378;0.018;2022-12-29T11:07:24;2.95;;;0.57;;
26060;SDS011;36331;51.378;0.018;2022-12-29T11:12:39;2.17;;;0.70;;
26060;SDS011;36331;51.378;0.018;2022-12-29T11:15:12;5.43;;;0.60;;
26060;SDS011;36331;51.378;0.018;2022-12-29T11:17:45;3.45;;;0.60;;
26060;SDS011;36331;51.378;0.018;2022-12-29T11:20:19;1.85;;;0.85;;
26060;SDS011;36331;51.378;0.018;2022-12-29T11:22:51;6.03;;;0.82;;
26060;SDS011;36331;51.378;0.018;2022-12-29T11:25:21;4.97;;;0.50;;
26060;SDS011;36331;51.378;0.018;2022-12-29T11:27:58;1.90;;;0.70;;
26060;SDS011;36331;51.378;0.018;2022-12-29T11:30:29;3.47;;;0.55;;
26060;SDS011;36331;51.378;0.018;2022-12-29T11:33:05;4.25;;;0.57;;
26060;SDS011;36331;51.378;0.018;2022-12-29T11:35:35;5.57;;;1.10;;
26060;SDS011;36331;51.378;0.018;2022-12-29T11:40:37;7.28;;;0.82;;
26060;SDS011;36331;51.378;0.018;2022-12-29T11:45:36;1.92;;;0.43;;
26060;SDS011;36331;51.378;0.018;2022-12-29T11:48:09;6.18;;;0.50;;
26060;SDS011;36331;51.378;0.018;2022-12-29T11:50:48;2.28;;;0.90;;
26060;SDS011;36331;51.378;0.018;2022-12-29T11:53:20;7.47;;;1.58;;
26060;SDS011;36331;51.378;0.018;2022-12-29T11:55:54;3.20;;;0.80;;
26060;SDS011;36331;51.378;0.018;2022-12-29T11:58:28;4.20;;;0.73;;
26060;SDS011;36331;51.378;0.018;2022-12-29T12:01:02;4.97;;;1.02;;
26060;SDS011;36331;51.378;0.018;2022-12-29T12:03:38;4.45;;;0.60;;
26060;SDS011;36331;51.378;0.018;2022-12-29T12:06:12;3.50;;;0.90;;
26060;SDS011;36331;51.378;0.018;2022-12-29T12:08:44;3.88;;;1.00;;
26060;SDS011;36331;51.378;0.018;2022-12-29T12:11:24;6.13;;;0.85;;
26060;SDS011;36331;51.378;0.018;2022-12-29T12:14:02;5.82;;;0.60;;
26060;SDS011;36331;51.378;0.018;2022-12-29T12:16:54;5.95;;;0.90;;
26060;SDS011;36331;51.378;0.018;2022-12-29T12:19:30;7.38;;;1.13;;
26060;SDS011;36331;51.378;0.018;2022-12-29T12:22:03;7.20;;;1.35;;
26060;SDS011;36331;51.378;0.018;2022-12-29T12:24:38;4.40;;;1.02;;
26060;SDS011;36331;51.378;0.018;2022-12-29T12:27:11;4.72;;;1.08;;
26060;SDS011;36331;51.378;0.018;2022-12-29T12:29:46;7.43;;;1.48;;
26060;SDS011;36331;51.378;0.018;2022-12-29T12:32:20;4.97;;;1.15;;
26060;SDS011;36331;51.378;0.018;2022-12-29T12:34:52;6.13;;;0.70;;
26060;SDS011;36331;51.378;0.018;2022-12-29T12:37:32;5.85;;;1.02;;
26060;SDS011;36331;51.378;0.018;2022-12-29T12:40:19;6.05;;;1.17;;
26060;SDS011;36331;51.378;0.018;2022-12-29T12:42:53;6.15;;;1.65;;
26060;SDS011;36331;51.378;0.018;2022-12-29T12:45:32;5.88;;;1.08;;
26060;SDS011;36331;51.378;0.018;2022-12-29T12:48:10;8.38;;;2.40;;
26060;SDS011;36331;51.378;0.018;2022-12-29T12:50:46;7.50;;;1.45;;
26060;SDS011;36331;51.378;0.018;2022-12-29T12:53:30;7.97;;;1.80;;
26060;SDS011;36331;51.378;0.018;2022-12-29T12:56:08;8.77;;;1.83;;
26060;SDS011;36331;51.378;0.018;2022-12-29T12:58:43;4.47;;;0.95;;
26060;SDS011;36331;51.378;0.018;2022-12-29T13:01:24;10.07;;;1.30;;
26060;SDS011;36331;51.378;0.018;2022-12-29T13:04:05;6.40;;;1.75;;
26060;SDS011;36331;51.378;0.018;2022-12-29T13:06:44;4.07;;;1.13;;
26060;SDS011;36331;51.378;0.018;2022-12-29T13:09:23;2.72;;;0.80;;
26060;SDS011;36331;51.378;0.018;2022-12-29T13:12:01;5.30;;;1.65;;
26060;SDS011;36331;51.378;0.018;2022-12-29T13:14:37;7.57;;;1.77;;
26060;SDS011;36331;51.378;0.018;2022-12-29T13:17:24;7.45;;;1.45;;
26060;SDS011;36331;51.378;0.018;2022-12-29T13:20:03;6.07;;;0.98;;
26060;SDS011;36331;51.378;0.018;2022-12-29T13:22:43;6.75;;;1.70;;
26060;SDS011;36331;51.378;0.018;2022-12-29T13:25:23;9.73;;;1.83;;
26060;SDS011;36331;51.378;0.018;2022-12-29T13:28:13;8.63;;;1.20;;
26060;SDS011;36331;51.378;0.018;2022-12-29T13:30:48;6.43;;;1.27;;
26060;SDS011;36331;51.378;0.018;2022-12-29T13:33:22;4.70;;;0.77;;
26060;SDS011;36331;51.378;0.018;2022-12-29T13:35:56;6.85;;;1.40;;
26060;SDS011;36331;51.378;0.018;2022-12-29T13:38:32;6.10;;;1.30;;
26060;SDS011;36331;51.378;0.018;2022-12-29T13:41:05;6.82;;;1.63;;
26060;SDS011;36331;51.378;0.018;2022-12-29T13:46:07;12.82;;;1.50;;
26060;SDS011;36331;51.378;0.018;2022-12-29T13:48:40;6.05;;;1.65;;
26060;SDS011;36331;51.378;0.018;2022-12-29T13:51:13;5.32;;;0.98;;
26060;SDS011;36331;51.378;0.018;2022-12-29T13:53:57;9.50;;;1.40;;
26060;SDS011;36331;51.378;0.018;2022-12-29T13:56:33;10.73;;;3.03;;
26060;SDS011;36331;51.378;0.018;2022-12-29T13:59:06;7.43;;;1.10;;
26060;SDS011;36331;51.378;0.018;2022-12-29T14:01:42;3.63;;;0.95;;
26060;SDS011;36331;51.378;0.018;2022-12-29T14:04:17;6.78;;;1.48;;
26060;SDS011;36331;51.378;0.018;2022-12-29T14:06:58;3.85;;;1.10;;
26060;SDS011;36331;51.378;0.018;2022-12-29T14:12:35;10.03;;;1.30;;
26060;SDS011;36331;51.378;0.018;2022-12-29T14:15:06;6.88;;;1.20;;
26060;SDS011;36331;51.378;0.018;2022-12-29T14:17:43;5.32;;;1.48;;
26060;SDS011;36331;51.378;0.018;2022-12-29T14:20:18;5.35;;;1.50;;
26060;SDS011;36331;51.378;0.018;2022-12-29T14:22:56;9.40;;;1.60;;
26060;SDS011;36331;51.378;0.018;2022-12-29T14:28:22;5.47;;;1.15;;
26060;SDS011;36331;51.378;0.018;2022-12-29T14:30:52;5.22;;;1.05;;
26060;SDS011;36331;51.378;0.018;2022-12-29T14:33:23;6.80;;;1.10;;
26060;SDS011;36331;51.378;0.018;2022-12-29T14:35:55;7.05;;;1.08;;
26060;SDS011;36331;51.378;0.018;2022-12-29T14:38:32;6.63;;;1.02;;
26060;SDS011;36331;51.378;0.018;2022-12-29T14:41:18;6.95;;;1.05;;
26060;SDS011;36331;51.378;0.018;2022-12-29T14:46:24;7.05;;;1.15;;
26060;SDS011;36331;51.378;0.018;2022-12-29T14:51:29;3.72;;;1.05;;
26060;SDS011;36331;51.378;0.018;2022-12-29T14:53:59;4.93;;;1.48;;
26060;SDS011;36331;51.378;0.018;2022-12-29T14:56:29;4.43;;;1.27;;
26060;SDS011;36331;51.378;0.018;2022-12-29T14:59:01;2.83;;;0.70;;
26060;SDS011;36331;51.378;0.018;2022-12-29T15:01:38;4.20;;;1.00;;
26060;SDS011;36331;51.378;0.018;2022-12-29T15:04:14;7.30;;;1.30;;
26060;SDS011;36331;51.378;0.018;2022-12-29T15:06:48;6.15;;;1.02;;
26060;SDS011;36331;51.378;0.018;2022-12-29T15:09:23;8.32;;;1.00;;
26060;SDS011;36331;51.378;0.018;2022-12-29T15:11:55;4.28;;;1.02;;
26060;SDS011;36331;51.378;0.018;2022-12-29T15:14:30;7.68;;;1.10;;
26060;SDS011;36331;51.378;0.018;2022-12-29T15:17:02;5.30;;;1.20;;
26060;SDS011;36331;51.378;0.018;2022-12-29T15:19:39;3.95;;;1.65;;
26060;SDS011;36331;51.378;0.018;2022-12-29T15:22:12;3.70;;;0.98;;
26060;SDS011;36331;51.378;0.018;2022-12-29T15:24:44;2.53;;;0.93;;
26060;SDS011;36331;51.378;0.018;2022-12-29T15:27:14;10.32;;;1.20;;
26060;SDS011;36331;51.378;0.018;2022-12-29T15:32:18;7.28;;;2.05;;
26060;SDS011;36331;51.378;0.018;2022-12-29T15:34:49;5.20;;;1.17;;
26060;SDS011;36331;51.378;0.018;2022-12-29T15:37:19;3.90;;;1.38;;
26060;SDS011;36331;51.378;0.018;2022-12-29T15:39:53;6.85;;;1.98;;
26060;SDS011;36331;51.378;0.018;2022-12-29T15:42:29;9.32;;;1.25;;
26060;SDS011;36331;51.378;0.018;2022-12-29T15:45:03;7.28;;;1.42;;
26060;SDS011;36331;51.378;0.018;2022-12-29T15:47:39;6.40;;;0.88;;
26060;SDS011;36331;51.378;0.018;2022-12-29T15:55:18;6.35;;;1.52;;
26060;SDS011;36331;51.378;0.018;2022-12-29T15:57:48;6.13;;;1.10;;
26060;SDS011;36331;51.378;0.018;2022-12-29T16:00:23;6.20;;;1.30;;
26060;SDS011;36331;51.378;0.018;2022-12-29T16:02:57;6.57;;;2.42;;